createdAt,value
2019-04-27T00:00:56.132Z,0.00
2019-04-27T00:01:56.128Z,0.00
2019-04-27T00:03:02.196Z,0.00
2019-04-27T00:03:56.120Z,0.00
2019-04-27T00:04:56.112Z,0.00
2019-04-27T00:05:56.109Z,0.00
2019-04-27T00:06:56.105Z,0.00
2019-04-27T00:07:59.298Z,0.00
2019-04-27T00:08:56.094Z,0.00
2019-04-27T00:09:56.089Z,0.00
2019-04-27T00:10:59.807Z,0.00
2019-04-27T00:11:56.084Z,0.00
2019-04-27T00:12:57.263Z,0.00
2019-04-27T00:13:56.070Z,0.00
2019-04-27T00:14:56.142Z,0.00
2019-04-27T00:15:56.062Z,0.00
2019-04-27T00:16:56.061Z,0.00
2019-04-27T00:17:58.284Z,0.00
2019-04-27T00:18:57.954Z,0.00
2019-04-27T00:19:56.045Z,0.00
2019-04-27T00:20:56.037Z,0.00
2019-04-27T00:21:56.033Z,0.00
2019-04-27T00:22:56.029Z,0.00
2019-04-27T00:23:56.029Z,0.00
2019-04-27T00:24:56.030Z,0.00
2019-04-27T00:25:56.015Z,0.00
2019-04-27T00:26:56.009Z,0.00
2019-04-27T00:27:56.005Z,0.00
2019-04-27T00:28:56.003Z,0.00
2019-04-27T00:29:55.997Z,0.00
2019-04-27T00:30:55.991Z,0.00
2019-04-27T00:31:55.987Z,0.00
2019-04-27T00:32:55.986Z,0.00
2019-04-27T00:33:55.977Z,0.00
2019-04-27T00:34:55.973Z,0.00
2019-04-27T00:35:55.968Z,0.00
2019-04-27T00:36:55.962Z,0.00
2019-04-27T00:37:55.957Z,0.00
2019-04-27T00:38:55.952Z,0.00
2019-04-27T00:39:55.949Z,0.00
2019-04-27T00:40:55.944Z,0.00
2019-04-27T00:41:55.939Z,0.00
2019-04-27T00:42:55.935Z,0.00
2019-04-27T00:43:55.930Z,0.00
2019-04-27T00:44:55.925Z,0.00
2019-04-27T00:45:55.922Z,0.00
2019-04-27T00:46:55.914Z,0.00
2019-04-27T00:47:59.527Z,0.00
2019-04-27T00:48:55.905Z,0.00
2019-04-27T00:49:55.901Z,0.00
2019-04-27T00:50:55.896Z,0.00
2019-04-27T00:51:55.892Z,0.00
2019-04-27T00:52:55.886Z,0.00
2019-04-27T00:53:55.881Z,0.00
2019-04-27T00:54:55.876Z,0.00
2019-04-27T00:55:55.872Z,0.00
2019-04-27T00:56:55.867Z,0.00
2019-04-27T00:57:55.869Z,0.00
2019-04-27T00:58:55.857Z,0.00
2019-04-27T00:59:55.854Z,0.00
2019-04-27T01:00:55.847Z,0.00
2019-04-27T01:01:55.843Z,0.00
2019-04-27T01:02:55.837Z,0.00
2019-04-27T01:03:55.834Z,0.00
2019-04-27T01:04:55.829Z,0.00
2019-04-27T01:05:55.823Z,0.00
2019-04-27T01:06:55.818Z,0.00
2019-04-27T01:07:55.813Z,0.00
2019-04-27T01:08:55.808Z,0.00
2019-04-27T01:09:55.803Z,0.00
2019-04-27T01:10:55.799Z,0.00
2019-04-27T01:11:55.793Z,0.00
2019-04-27T01:12:55.790Z,0.00
2019-04-27T01:13:55.783Z,0.00
2019-04-27T01:14:55.781Z,0.00
2019-04-27T01:15:55.773Z,0.00
2019-04-27T01:16:55.767Z,0.00
2019-04-27T01:18:09.560Z,0.00
2019-04-27T01:18:55.758Z,0.00
2019-04-27T01:19:55.754Z,0.00
2019-04-27T01:20:55.747Z,0.00
2019-04-27T01:21:55.745Z,0.00
2019-04-27T01:22:55.738Z,0.00
2019-04-27T01:23:55.735Z,0.00
2019-04-27T01:24:55.728Z,0.00
2019-04-27T01:25:55.722Z,0.00
2019-04-27T01:26:55.717Z,0.00
2019-04-27T01:27:55.712Z,0.00
2019-04-27T01:28:55.706Z,0.00
2019-04-27T01:29:55.717Z,0.00
2019-04-27T01:30:55.696Z,0.00
2019-04-27T01:31:55.691Z,0.00
2019-04-27T01:32:55.685Z,0.00
2019-04-27T01:33:55.690Z,0.00
2019-04-27T01:34:55.676Z,0.00
2019-04-27T01:35:55.671Z,0.00
2019-04-27T01:36:55.666Z,0.00
2019-04-27T01:37:55.660Z,0.00
2019-04-27T01:38:55.655Z,0.00
2019-04-27T01:39:55.650Z,0.00
2019-04-27T01:40:55.643Z,0.00
2019-04-27T01:41:55.640Z,0.00
2019-04-27T01:42:55.635Z,0.00
2019-04-27T01:43:55.631Z,0.00
2019-04-27T01:44:55.630Z,0.00
2019-04-27T01:45:55.618Z,0.00
2019-04-27T01:46:55.614Z,0.00
2019-04-27T01:47:55.607Z,0.00
2019-04-27T01:48:55.602Z,0.00
2019-04-27T01:49:55.597Z,0.00
2019-04-27T01:50:55.592Z,0.00
2019-04-27T01:51:55.587Z,0.00
2019-04-27T01:52:55.581Z,0.00
2019-04-27T01:53:55.575Z,0.00
2019-04-27T01:54:55.573Z,0.00
2019-04-27T01:55:55.565Z,0.00
2019-04-27T01:56:55.559Z,0.00
2019-04-27T01:57:55.556Z,0.00
2019-04-27T01:58:55.549Z,0.00
2019-04-27T01:59:55.545Z,0.00
2019-04-27T02:00:55.538Z,0.00
2019-04-27T02:01:55.533Z,0.00
2019-04-27T02:02:55.528Z,0.00
2019-04-27T02:03:55.523Z,0.00
2019-04-27T02:04:55.516Z,0.00
2019-04-27T02:05:55.513Z,0.00
2019-04-27T02:06:55.507Z,0.00
2019-04-27T02:07:55.503Z,0.00
2019-04-27T02:08:55.495Z,0.00
2019-04-27T02:09:55.491Z,0.00
2019-04-27T02:10:55.485Z,0.00
2019-04-27T02:11:55.480Z,0.00
2019-04-27T02:12:55.473Z,0.00
2019-04-27T02:13:55.469Z,0.00
2019-04-27T02:14:55.465Z,0.00
2019-04-27T02:15:55.457Z,0.00
2019-04-27T02:16:55.451Z,0.00
2019-04-27T02:17:55.448Z,0.00
2019-04-27T02:18:55.442Z,0.00
2019-04-27T02:19:55.440Z,0.00
2019-04-27T02:20:55.435Z,0.00
2019-04-27T02:21:55.426Z,0.00
2019-04-27T02:22:55.427Z,0.00
2019-04-27T02:23:55.413Z,0.00
2019-04-27T02:24:55.407Z,0.00
2019-04-27T02:25:55.404Z,0.00
2019-04-27T02:26:55.399Z,0.00
2019-04-27T02:27:55.392Z,0.00
2019-04-27T02:28:55.387Z,0.00
2019-04-27T02:29:55.381Z,0.00
2019-04-27T02:30:55.376Z,0.00
2019-04-27T02:31:55.371Z,0.00
2019-04-27T02:32:55.365Z,0.00
2019-04-27T02:33:55.360Z,0.00
2019-04-27T02:34:55.359Z,0.00
2019-04-27T02:35:55.352Z,0.00
2019-04-27T02:36:55.342Z,0.00
2019-04-27T02:37:55.337Z,0.00
2019-04-27T02:38:55.332Z,0.00
2019-04-27T02:39:55.329Z,0.00
2019-04-27T02:40:55.328Z,0.00
2019-04-27T02:41:55.316Z,0.00
2019-04-27T02:42:55.310Z,0.00
2019-04-27T02:43:55.307Z,0.00
2019-04-27T02:44:55.301Z,0.00
2019-04-27T02:45:55.292Z,0.00
2019-04-27T02:46:55.292Z,0.00
2019-04-27T02:47:55.283Z,0.00
2019-04-27T02:49:00.037Z,0.00
2019-04-27T02:49:55.271Z,0.00
2019-04-27T02:50:55.266Z,0.00
2019-04-27T02:51:55.261Z,0.00
2019-04-27T02:52:55.253Z,0.00
2019-04-27T02:53:55.248Z,0.00
2019-04-27T02:54:55.243Z,0.00
2019-04-27T02:55:55.239Z,0.00
2019-04-27T02:56:55.232Z,0.00
2019-04-27T02:57:55.225Z,0.00
2019-04-27T02:58:55.228Z,0.00
2019-04-27T02:59:55.215Z,0.00
2019-04-27T03:00:55.209Z,0.00
2019-04-27T03:01:55.204Z,0.00
2019-04-27T03:02:55.201Z,0.00
2019-04-27T03:03:55.193Z,0.00
2019-04-27T03:04:55.186Z,0.00
2019-04-27T03:05:55.181Z,0.00
2019-04-27T03:06:55.177Z,0.00
2019-04-27T03:07:55.169Z,0.00
2019-04-27T03:08:55.163Z,0.00
2019-04-27T03:09:55.157Z,0.00
2019-04-27T03:10:55.152Z,0.00
2019-04-27T03:11:55.151Z,0.00
2019-04-27T03:12:55.141Z,0.00
2019-04-27T03:13:55.134Z,0.00
2019-04-27T03:14:55.129Z,0.00
2019-04-27T03:15:55.123Z,0.00
2019-04-27T03:16:55.116Z,0.00
2019-04-27T03:17:55.111Z,0.00
2019-04-27T03:19:10.217Z,0.00
2019-04-27T03:19:55.100Z,0.00
2019-04-27T03:20:55.094Z,0.00
2019-04-27T03:21:55.088Z,0.00
2019-04-27T03:22:55.083Z,0.00
2019-04-27T03:23:55.078Z,0.00
2019-04-27T03:24:55.073Z,0.00
2019-04-27T03:25:55.072Z,0.00
2019-04-27T03:26:55.060Z,0.00
2019-04-27T03:27:55.054Z,0.00
2019-04-27T03:28:55.048Z,0.00
2019-04-27T03:29:55.042Z,0.00
2019-04-27T03:30:55.036Z,0.00
2019-04-27T03:31:55.032Z,0.00
2019-04-27T03:32:56.615Z,0.00
2019-04-27T03:33:58.877Z,0.00
2019-04-27T03:34:55.019Z,0.00
2019-04-27T03:35:55.015Z,0.00
2019-04-27T03:36:55.017Z,0.00
2019-04-27T03:37:54.997Z,4.00
2019-04-27T03:38:54.989Z,4.00
2019-04-27T03:39:54.982Z,4.00
2019-04-27T03:40:54.979Z,4.00
2019-04-27T03:41:54.970Z,4.00
2019-04-27T03:42:54.974Z,4.00
2019-04-27T03:43:54.960Z,4.00
2019-04-27T03:44:54.953Z,8.00
2019-04-27T03:45:54.955Z,4.00
2019-04-27T03:46:54.943Z,8.00
2019-04-27T03:47:54.936Z,12.00
2019-04-27T03:48:54.930Z,12.00
2019-04-27T03:49:54.924Z,16.00
2019-04-27T03:50:54.919Z,16.00
2019-04-27T03:51:54.927Z,20.00
2019-04-27T03:52:54.916Z,20.00
2019-04-27T03:53:57.232Z,24.00
2019-04-27T03:54:54.895Z,28.00
2019-04-27T03:55:54.889Z,32.00
2019-04-27T03:56:54.882Z,36.00
2019-04-27T03:57:54.877Z,40.00
2019-04-27T03:58:54.870Z,44.00
2019-04-27T03:59:54.866Z,52.00
2019-04-27T04:00:54.876Z,60.00
2019-04-27T04:01:54.853Z,64.00
2019-04-27T04:02:54.846Z,72.00
2019-04-27T04:03:54.841Z,84.00
2019-04-27T04:04:54.838Z,92.00
2019-04-27T04:05:54.831Z,112.00
2019-04-27T04:06:54.824Z,128.00
2019-04-27T04:07:54.818Z,148.00
2019-04-27T04:08:55.222Z,168.00
2019-04-27T04:09:54.807Z,184.00
2019-04-27T04:10:54.800Z,204.00
2019-04-27T04:11:54.794Z,228.00
2019-04-27T04:12:56.337Z,248.00
2019-04-27T04:13:54.783Z,272.00
2019-04-27T04:14:54.777Z,296.00
2019-04-27T04:15:54.773Z,320.00
2019-04-27T04:16:58.955Z,348.00
2019-04-27T04:17:54.758Z,376.00
2019-04-27T04:18:54.756Z,400.00
2019-04-27T04:19:58.063Z,432.00
2019-04-27T04:20:54.740Z,460.00
2019-04-27T04:21:54.734Z,492.00
2019-04-27T04:22:54.731Z,528.00
2019-04-27T04:23:54.724Z,564.00
2019-04-27T04:24:54.718Z,604.00
2019-04-27T04:25:54.713Z,648.00
2019-04-27T04:26:54.708Z,688.00
2019-04-27T04:27:54.701Z,736.00
2019-04-27T04:28:54.695Z,788.00
2019-04-27T04:29:54.688Z,848.00
2019-04-27T04:30:54.683Z,904.00
2019-04-27T04:31:54.677Z,952.00
2019-04-27T04:32:54.671Z,1004.00
2019-04-27T04:33:54.664Z,1056.00
2019-04-27T04:34:54.661Z,1116.00
2019-04-27T04:35:54.656Z,1172.00
2019-04-27T04:36:54.650Z,1232.00
2019-04-27T04:37:54.662Z,1288.00
2019-04-27T04:38:54.637Z,1348.00
2019-04-27T04:39:54.631Z,1412.00
2019-04-27T04:40:54.625Z,1488.00
2019-04-27T04:41:54.618Z,1568.00
2019-04-27T04:42:54.614Z,1652.00
2019-04-27T04:43:54.608Z,1728.00
2019-04-27T04:44:54.601Z,1812.00
2019-04-27T04:45:54.598Z,1884.00
2019-04-27T04:46:54.589Z,1956.00
2019-04-27T04:47:54.585Z,2028.00
2019-04-27T04:48:54.580Z,2080.00
2019-04-27T04:50:07.562Z,2116.00
2019-04-27T04:50:54.570Z,2140.00
2019-04-27T04:51:54.563Z,2172.00
2019-04-27T04:52:54.556Z,2188.00
2019-04-27T04:53:54.551Z,2204.00
2019-04-27T04:54:54.545Z,2216.00
2019-04-27T04:55:54.540Z,2232.00
2019-04-27T04:56:54.534Z,2240.00
2019-04-27T04:57:54.528Z,2244.00
2019-04-27T04:58:54.523Z,2256.00
2019-04-27T04:59:54.518Z,2284.00
2019-04-27T05:00:54.512Z,2324.00
2019-04-27T05:01:54.506Z,2372.00
2019-04-27T05:02:54.509Z,2436.00
2019-04-27T05:03:54.494Z,2512.00
2019-04-27T05:04:54.490Z,2596.00
2019-04-27T05:05:54.483Z,2688.00
2019-04-27T05:06:54.477Z,2768.00
2019-04-27T05:07:54.472Z,2836.00
2019-04-27T05:08:54.469Z,2892.00
2019-04-27T05:09:54.460Z,2964.00
2019-04-27T05:10:54.456Z,3040.00
2019-04-27T05:11:54.455Z,3120.00
2019-04-27T05:12:54.444Z,3228.00
2019-04-27T05:13:54.440Z,3336.00
2019-04-27T05:14:54.434Z,3412.00
2019-04-27T05:15:54.428Z,3468.00
2019-04-27T05:16:54.423Z,3532.00
2019-04-27T05:17:54.418Z,3616.00
2019-04-27T05:18:54.415Z,3720.00
2019-04-27T05:19:54.407Z,3836.00
2019-04-27T05:20:54.401Z,3952.00
2019-04-27T05:21:54.398Z,4024.00
2019-04-27T05:22:54.391Z,4084.00
2019-04-27T05:23:54.387Z,4128.00
2019-04-27T05:24:54.381Z,4160.00
2019-04-27T05:25:54.376Z,4088.00
2019-04-27T05:26:54.371Z,3916.00
2019-04-27T05:27:54.365Z,3804.00
2019-04-27T05:28:54.360Z,3772.00
2019-04-27T05:29:54.357Z,3752.00
2019-04-27T05:30:54.351Z,3688.00
2019-04-27T05:31:54.347Z,3600.00
2019-04-27T05:32:54.342Z,3548.00
2019-04-27T05:33:54.335Z,3464.00
2019-04-27T05:34:54.333Z,3328.00
2019-04-27T05:35:54.327Z,3300.00
2019-04-27T05:36:54.322Z,3336.00
2019-04-27T05:37:54.316Z,3428.00
2019-04-27T05:38:54.313Z,3588.00
2019-04-27T05:39:54.306Z,3780.00
2019-04-27T05:40:54.300Z,3964.00
2019-04-27T05:41:54.297Z,4116.00
2019-04-27T05:42:55.380Z,4276.00
2019-04-27T05:43:54.286Z,4468.00
2019-04-27T05:44:54.281Z,4612.00
2019-04-27T05:45:59.392Z,4660.00
2019-04-27T05:46:54.273Z,4732.00
2019-04-27T05:47:54.267Z,4792.00
2019-04-27T05:48:54.262Z,4808.00
2019-04-27T05:49:54.259Z,4804.00
2019-04-27T05:50:58.797Z,4888.00
2019-04-27T05:51:54.249Z,5140.00
2019-04-27T05:52:54.243Z,5520.00
2019-04-27T05:53:54.239Z,6176.00
2019-04-27T05:54:54.235Z,6492.00
2019-04-27T05:55:54.230Z,5988.00
2019-04-27T05:56:54.225Z,5532.00
2019-04-27T05:57:54.222Z,4848.00
2019-04-27T05:58:54.218Z,4296.00
2019-04-27T05:59:54.214Z,3968.00
2019-04-27T06:00:54.207Z,3564.00
2019-04-27T06:01:54.202Z,3276.00
2019-04-27T06:02:54.199Z,3204.00
2019-04-27T06:03:54.194Z,3160.00
2019-04-27T06:04:54.190Z,3036.00
2019-04-27T06:05:54.186Z,2876.00
2019-04-27T06:06:54.183Z,2728.00
2019-04-27T06:07:54.179Z,2504.00
2019-04-27T06:08:54.173Z,2256.00
2019-04-27T06:09:54.170Z,2088.00
2019-04-27T06:10:54.165Z,2044.00
2019-04-27T06:11:54.185Z,2104.00
2019-04-27T06:12:54.155Z,2208.00
2019-04-27T06:13:54.151Z,2260.00
2019-04-27T06:14:54.148Z,2304.00
2019-04-27T06:15:54.143Z,2356.00
2019-04-27T06:16:54.138Z,2356.00
2019-04-27T06:17:54.135Z,2224.00
2019-04-27T06:18:54.130Z,1984.00
2019-04-27T06:19:54.132Z,1752.00
2019-04-27T06:20:55.853Z,1492.00
2019-04-27T06:21:54.119Z,1384.00
2019-04-27T06:22:54.116Z,1332.00
2019-04-27T06:23:54.116Z,1188.00
2019-04-27T06:24:54.643Z,1072.00
2019-04-27T06:25:54.101Z,1032.00
2019-04-27T06:26:54.098Z,1024.00
2019-04-27T06:27:54.095Z,1072.00
2019-04-27T06:28:54.090Z,1184.00
2019-04-27T06:29:54.086Z,1316.00
2019-04-27T06:30:54.082Z,1424.00
2019-04-27T06:31:54.076Z,1556.00
2019-04-27T06:32:54.071Z,1656.00
2019-04-27T06:33:54.068Z,1812.00
2019-04-27T06:34:54.065Z,2032.00
2019-04-27T06:35:54.061Z,2048.00
2019-04-27T06:36:54.058Z,1924.00
2019-04-27T06:37:54.054Z,2028.00
2019-04-27T06:38:54.049Z,2248.00
2019-04-27T06:39:54.044Z,2364.00
2019-04-27T06:40:54.039Z,2444.00
2019-04-27T06:41:54.035Z,2576.00
2019-04-27T06:42:54.042Z,2676.00
2019-04-27T06:43:54.027Z,2740.00
2019-04-27T06:44:54.024Z,2804.00
2019-04-27T06:45:54.020Z,2832.00
2019-04-27T06:46:54.016Z,2864.00
2019-04-27T06:47:54.012Z,2880.00
2019-04-27T06:48:54.007Z,2808.00
2019-04-27T06:49:54.005Z,2768.00
2019-04-27T06:51:02.651Z,2880.00
2019-04-27T06:51:53.996Z,3068.00
2019-04-27T06:52:53.991Z,3112.00
2019-04-27T06:53:53.990Z,3184.00
2019-04-27T06:54:53.986Z,3324.00
2019-04-27T06:55:53.982Z,3324.00
2019-04-27T06:56:53.977Z,3060.00
2019-04-27T06:57:53.973Z,2908.00
2019-04-27T06:58:53.967Z,2924.00
2019-04-27T06:59:53.969Z,3064.00
2019-04-27T07:00:53.961Z,2904.00
2019-04-27T07:01:53.960Z,2844.00
2019-04-27T07:02:55.348Z,2908.00
2019-04-27T07:03:53.957Z,2844.00
2019-04-27T07:04:53.947Z,2608.00
2019-04-27T07:05:53.943Z,2280.00
2019-04-27T07:06:56.134Z,2048.00
2019-04-27T07:07:53.936Z,1896.00
2019-04-27T07:08:55.235Z,1960.00
2019-04-27T07:09:53.929Z,2036.00
2019-04-27T07:10:53.925Z,2040.00
2019-04-27T07:11:53.923Z,2212.00
2019-04-27T07:12:53.917Z,2736.00
2019-04-27T07:13:53.915Z,3600.00
2019-04-27T07:14:55.103Z,3796.00
2019-04-27T07:15:53.909Z,3712.00
2019-04-27T07:16:53.906Z,3808.00
2019-04-27T07:17:53.902Z,3728.00
2019-04-27T07:18:53.898Z,3544.00
2019-04-27T07:19:53.897Z,2736.00
2019-04-27T07:20:53.892Z,2120.00
2019-04-27T07:21:53.885Z,1980.00
2019-04-27T07:22:53.884Z,1980.00
2019-04-27T07:23:53.880Z,1860.00
2019-04-27T07:24:53.876Z,1776.00
2019-04-27T07:25:53.873Z,1752.00
2019-04-27T07:26:53.871Z,1668.00
2019-04-27T07:27:53.867Z,1584.00
2019-04-27T07:28:53.863Z,1684.00
2019-04-27T07:29:53.896Z,1808.00
2019-04-27T07:30:53.857Z,1764.00
2019-04-27T07:31:53.855Z,1596.00
2019-04-27T07:32:53.850Z,1452.00
2019-04-27T07:33:53.847Z,1324.00
2019-04-27T07:34:55.275Z,1276.00
2019-04-27T07:35:53.840Z,1220.00
2019-04-27T07:36:53.837Z,1196.00
2019-04-27T07:37:53.834Z,1200.00
2019-04-27T07:38:53.830Z,1256.00
2019-04-27T07:39:53.827Z,1492.00
2019-04-27T07:40:53.824Z,1544.00
2019-04-27T07:41:53.818Z,1272.00
2019-04-27T07:42:53.818Z,1368.00
2019-04-27T07:43:53.813Z,1584.00
2019-04-27T07:44:53.809Z,1484.00
2019-04-27T07:45:53.806Z,1148.00
2019-04-27T07:46:53.802Z,1108.00
2019-04-27T07:47:53.799Z,1120.00
2019-04-27T07:48:53.795Z,1244.00
2019-04-27T07:49:53.794Z,1600.00
2019-04-27T07:50:53.790Z,1916.00
2019-04-27T07:51:53.785Z,2168.00
2019-04-27T07:52:53.784Z,2740.00
2019-04-27T07:53:53.779Z,3232.00
2019-04-27T07:54:53.781Z,3536.00
2019-04-27T07:55:53.773Z,2868.00
2019-04-27T07:56:53.769Z,2308.00
2019-04-27T07:57:53.766Z,1976.00
2019-04-27T07:58:53.762Z,2264.00
2019-04-27T07:59:53.759Z,2236.00
2019-04-27T08:00:53.755Z,2012.00
2019-04-27T08:01:53.756Z,2068.00
2019-04-27T08:02:53.749Z,2180.00
2019-04-27T08:03:53.748Z,2776.00
2019-04-27T08:04:53.742Z,2632.00
2019-04-27T08:05:53.741Z,2436.00
2019-04-27T08:06:53.736Z,2280.00
2019-04-27T08:07:53.731Z,1804.00
2019-04-27T08:08:53.729Z,1732.00
2019-04-27T08:09:53.727Z,2076.00
2019-04-27T08:10:53.727Z,2500.00
2019-04-27T08:11:53.720Z,2296.00
2019-04-27T08:12:53.716Z,1836.00
2019-04-27T08:13:53.712Z,1932.00
2019-04-27T08:14:53.708Z,2124.00
2019-04-27T08:15:53.706Z,2940.00
2019-04-27T08:16:53.703Z,3548.00
2019-04-27T08:17:53.698Z,3736.00
2019-04-27T08:18:53.695Z,3796.00
2019-04-27T08:19:53.692Z,4028.00
2019-04-27T08:20:53.690Z,4248.00
2019-04-27T08:21:53.685Z,4264.00
2019-04-27T08:22:53.684Z,4124.00
2019-04-27T08:23:53.680Z,3944.00
2019-04-27T08:24:53.676Z,3708.00
2019-04-27T08:25:53.670Z,3464.00
2019-04-27T08:26:53.668Z,3188.00
2019-04-27T08:27:53.663Z,2896.00
2019-04-27T08:28:53.661Z,2744.00
2019-04-27T08:29:53.656Z,2596.00
2019-04-27T08:30:53.655Z,2620.00
2019-04-27T08:31:53.652Z,2488.00
2019-04-27T08:32:53.653Z,2476.00
2019-04-27T08:33:53.643Z,3032.00
2019-04-27T08:34:53.642Z,2944.00
2019-04-27T08:35:53.638Z,2724.00
2019-04-27T08:36:53.635Z,2928.00
2019-04-27T08:37:53.631Z,3244.00
2019-04-27T08:38:53.629Z,3240.00
2019-04-27T08:39:53.624Z,3176.00
2019-04-27T08:40:53.620Z,3036.00
2019-04-27T08:41:53.618Z,3116.00
2019-04-27T08:42:55.643Z,3248.00
2019-04-27T08:43:53.615Z,3468.00
2019-04-27T08:44:53.605Z,3612.00
2019-04-27T08:45:53.603Z,3676.00
2019-04-27T08:46:53.603Z,3948.00
2019-04-27T08:47:53.597Z,4112.00
2019-04-27T08:48:53.593Z,4232.00
2019-04-27T08:49:53.589Z,4184.00
2019-04-27T08:50:53.589Z,4180.00
2019-04-27T08:51:59.271Z,4380.00
2019-04-27T08:52:53.579Z,4380.00
2019-04-27T08:53:53.575Z,4384.00
2019-04-27T08:54:53.573Z,4392.00
2019-04-27T08:55:53.570Z,4308.00
2019-04-27T08:56:53.566Z,4468.00
2019-04-27T08:57:53.567Z,4476.00
2019-04-27T08:58:53.559Z,4372.00
2019-04-27T08:59:53.555Z,4400.00
2019-04-27T09:00:53.550Z,4404.00
2019-04-27T09:01:53.549Z,4728.00
2019-04-27T09:02:53.545Z,4704.00
2019-04-27T09:03:53.543Z,4824.00
2019-04-27T09:04:53.539Z,5136.00
2019-04-27T09:05:53.536Z,5328.00
2019-04-27T09:06:53.533Z,5276.00
2019-04-27T09:07:53.532Z,4784.00
2019-04-27T09:08:53.533Z,4092.00
2019-04-27T09:09:53.522Z,3604.00
2019-04-27T09:10:53.520Z,3260.00
2019-04-27T09:11:53.518Z,3392.00
2019-04-27T09:12:53.847Z,3184.00
2019-04-27T09:13:53.511Z,2820.00
2019-04-27T09:14:53.508Z,2800.00
2019-04-27T09:15:53.506Z,2420.00
2019-04-27T09:17:00.171Z,2988.00
2019-04-27T09:17:53.497Z,3232.00
2019-04-27T09:18:53.494Z,3356.00
2019-04-27T09:19:53.492Z,3060.00
2019-04-27T09:20:53.489Z,2788.00
2019-04-27T09:21:53.485Z,3344.00
2019-04-27T09:22:53.482Z,3156.00
2019-04-27T09:23:53.479Z,2504.00
2019-04-27T09:24:53.476Z,2324.00
2019-04-27T09:25:53.472Z,2336.00
2019-04-27T09:26:53.473Z,2224.00
2019-04-27T09:27:53.473Z,1804.00
2019-04-27T09:28:53.463Z,1476.00
2019-04-27T09:29:53.461Z,1752.00
2019-04-27T09:30:53.457Z,2516.00
2019-04-27T09:31:53.455Z,2640.00
2019-04-27T09:32:53.449Z,2268.00
2019-04-27T09:33:53.447Z,2400.00
2019-04-27T09:34:53.443Z,2192.00
2019-04-27T09:35:53.441Z,3068.00
2019-04-27T09:36:53.437Z,3420.00
2019-04-27T09:37:53.433Z,3964.00
2019-04-27T09:38:53.431Z,4356.00
2019-04-27T09:39:53.429Z,3420.00
2019-04-27T09:40:53.424Z,3740.00
2019-04-27T09:41:53.421Z,4768.00
2019-04-27T09:42:53.419Z,4492.00
2019-04-27T09:43:53.415Z,4444.00
2019-04-27T09:44:53.411Z,4780.00
2019-04-27T09:45:53.409Z,4000.00
2019-04-27T09:46:53.410Z,2740.00
2019-04-27T09:47:53.403Z,2100.00
2019-04-27T09:48:53.400Z,1928.00
2019-04-27T09:49:53.394Z,1788.00
2019-04-27T09:50:53.405Z,1860.00
2019-04-27T09:51:53.391Z,1804.00
2019-04-27T09:52:53.388Z,1412.00
2019-04-27T09:53:53.384Z,1232.00
2019-04-27T09:54:53.385Z,1736.00
2019-04-27T09:55:53.376Z,2700.00
2019-04-27T09:56:53.372Z,2936.00
2019-04-27T09:57:53.371Z,3984.00
2019-04-27T09:58:53.367Z,3780.00
2019-04-27T09:59:53.364Z,4120.00
2019-04-27T10:00:53.361Z,4044.00
2019-04-27T10:01:53.357Z,3664.00
2019-04-27T10:02:53.357Z,2756.00
2019-04-27T10:03:53.353Z,3264.00
2019-04-27T10:04:53.350Z,2936.00
2019-04-27T10:05:53.345Z,4112.00
2019-04-27T10:06:53.342Z,3636.00
2019-04-27T10:07:53.339Z,3456.00
2019-04-27T10:08:53.337Z,3236.00
2019-04-27T10:09:53.333Z,2676.00
2019-04-27T10:10:53.330Z,2504.00
2019-04-27T10:11:53.327Z,2948.00
2019-04-27T10:12:53.325Z,3444.00
2019-04-27T10:13:53.328Z,3308.00
2019-04-27T10:14:53.317Z,2508.00
2019-04-27T10:15:53.315Z,1616.00
2019-04-27T10:16:53.311Z,1176.00
2019-04-27T10:17:53.307Z,1600.00
2019-04-27T10:18:53.306Z,2248.00
2019-04-27T10:19:53.302Z,2548.00
2019-04-27T10:20:59.919Z,2392.00
2019-04-27T10:21:53.294Z,2700.00
2019-04-27T10:22:53.364Z,3344.00
2019-04-27T10:23:53.289Z,3552.00
2019-04-27T10:24:53.286Z,3196.00
2019-04-27T10:25:53.282Z,3252.00
2019-04-27T10:26:53.280Z,2500.00
2019-04-27T10:27:53.279Z,2236.00
2019-04-27T10:28:53.271Z,2480.00
2019-04-27T10:29:53.272Z,2780.00
2019-04-27T10:30:53.267Z,2456.00
2019-04-27T10:31:53.264Z,2220.00
2019-04-27T10:32:53.259Z,2104.00
2019-04-27T10:33:53.257Z,2984.00
2019-04-27T10:34:53.255Z,2888.00
2019-04-27T10:35:53.251Z,2772.00
2019-04-27T10:36:53.248Z,3952.00
2019-04-27T10:37:53.244Z,3948.00
2019-04-27T10:38:53.242Z,3656.00
2019-04-27T10:39:53.239Z,1932.00
2019-04-27T10:40:53.235Z,1844.00
2019-04-27T10:41:53.232Z,1460.00
2019-04-27T10:42:53.230Z,1772.00
2019-04-27T10:43:53.226Z,2288.00
2019-04-27T10:44:53.222Z,3584.00
2019-04-27T10:45:53.219Z,4276.00
2019-04-27T10:46:53.216Z,4588.00
2019-04-27T10:47:53.213Z,5068.00
2019-04-27T10:48:53.208Z,3960.00
2019-04-27T10:49:53.209Z,4340.00
2019-04-27T10:50:53.205Z,4076.00
2019-04-27T10:51:53.198Z,3564.00
2019-04-27T10:52:54.062Z,3824.00
2019-04-27T10:53:53.192Z,3800.00
2019-04-27T10:54:53.190Z,3148.00
2019-04-27T10:55:53.186Z,3464.00
2019-04-27T10:56:53.180Z,4048.00
2019-04-27T10:57:53.179Z,4468.00
2019-04-27T10:58:53.175Z,5244.00
2019-04-27T10:59:53.171Z,5692.00
2019-04-27T11:00:53.167Z,6256.00
2019-04-27T11:01:53.166Z,7188.00
2019-04-27T11:02:53.161Z,7988.00
2019-04-27T11:03:53.157Z,7772.00
2019-04-27T11:04:53.156Z,7016.00
2019-04-27T11:05:53.150Z,6496.00
2019-04-27T11:06:53.147Z,6332.00
2019-04-27T11:07:53.144Z,6140.00
2019-04-27T11:08:53.139Z,6040.00
2019-04-27T11:09:53.137Z,5996.00
2019-04-27T11:10:53.147Z,5760.00
2019-04-27T11:11:53.131Z,5076.00
2019-04-27T11:12:53.129Z,4172.00
2019-04-27T11:13:53.122Z,3604.00
2019-04-27T11:14:53.121Z,3376.00
2019-04-27T11:15:53.117Z,3248.00
2019-04-27T11:16:53.113Z,3080.00
2019-04-27T11:17:53.111Z,2784.00
2019-04-27T11:18:53.109Z,2416.00
2019-04-27T11:19:53.104Z,2256.00
2019-04-27T11:20:53.100Z,2312.00
2019-04-27T11:21:53.096Z,2424.00
2019-04-27T11:23:06.154Z,2660.00
2019-04-27T11:23:53.091Z,3228.00
2019-04-27T11:24:53.087Z,4000.00
2019-04-27T11:25:53.083Z,4816.00
2019-04-27T11:26:53.082Z,5404.00
2019-04-27T11:27:53.078Z,5700.00
2019-04-27T11:28:53.074Z,5920.00
2019-04-27T11:29:53.070Z,5964.00
2019-04-27T11:30:53.067Z,6168.00
2019-04-27T11:31:53.063Z,5568.00
2019-04-27T11:32:54.492Z,5024.00
2019-04-27T11:33:53.058Z,4472.00
2019-04-27T11:34:53.055Z,4652.00
2019-04-27T11:35:53.058Z,4820.00
2019-04-27T11:36:53.046Z,3416.00
2019-04-27T11:37:53.043Z,3324.00
2019-04-27T11:38:53.039Z,5068.00
2019-04-27T11:39:53.038Z,6272.00
2019-04-27T11:40:53.032Z,6312.00
2019-04-27T11:41:53.030Z,5748.00
2019-04-27T11:42:53.026Z,5708.00
2019-04-27T11:43:53.025Z,6080.00
2019-04-27T11:44:55.546Z,6724.00
2019-04-27T11:45:53.019Z,7624.00
2019-04-27T11:46:53.012Z,8636.00
2019-04-27T11:47:53.014Z,9408.00
2019-04-27T11:48:53.004Z,10012.00
2019-04-27T11:49:53.000Z,10824.00
2019-04-27T11:50:52.998Z,11576.00
2019-04-27T11:51:52.995Z,12676.00
2019-04-27T11:52:52.989Z,13684.00
2019-04-27T11:53:52.987Z,13544.00
2019-04-27T11:54:52.983Z,12724.00
2019-04-27T11:55:52.982Z,12076.00
2019-04-27T11:56:52.976Z,11556.00
2019-04-27T11:57:52.972Z,11176.00
2019-04-27T11:58:52.969Z,10676.00
2019-04-27T11:59:52.966Z,10268.00
2019-04-27T12:00:53.033Z,10156.00
2019-04-27T12:01:52.959Z,10360.00
2019-04-27T12:02:52.957Z,10420.00
2019-04-27T12:03:52.953Z,9776.00
2019-04-27T12:04:52.950Z,8880.00
2019-04-27T12:05:52.947Z,8184.00
2019-04-27T12:06:52.944Z,7944.00
2019-04-27T12:07:52.944Z,8140.00
2019-04-27T12:08:52.940Z,8416.00
2019-04-27T12:09:52.943Z,9036.00
2019-04-27T12:10:52.932Z,9676.00
2019-04-27T12:11:52.930Z,9724.00
2019-04-27T12:12:52.928Z,9160.00
2019-04-27T12:13:52.929Z,8520.00
2019-04-27T12:14:52.921Z,7964.00
2019-04-27T12:15:52.919Z,7364.00
2019-04-27T12:16:52.916Z,6688.00
2019-04-27T12:17:52.912Z,5956.00
2019-04-27T12:18:52.910Z,5320.00
2019-04-27T12:19:52.909Z,4804.00
2019-04-27T12:20:52.905Z,4660.00
2019-04-27T12:21:52.900Z,4656.00
2019-04-27T12:22:52.899Z,4780.00
2019-04-27T12:23:52.896Z,4864.00
2019-04-27T12:24:52.894Z,4864.00
2019-04-27T12:25:52.894Z,4840.00
2019-04-27T12:26:52.887Z,4872.00
2019-04-27T12:27:52.886Z,4820.00